Time;durP1;ratioP1;P1;durP2;ratioP2;P2;SDS_P1;SDS_P2;PMS_P1;PMS_P2;Temp;Humidity;BMP_temperature;BMP_pressure;BME280_temperature;BME280_humidity;BME280_pressure;Samples;Min_cycle;Max_cycle;Signal;HPM_P1;HPM_P2
2023/07/21 00:01:16;;;;;;;1.30;0.95;;;;;;;11.73;100.00;99701.06;7392209;19;20007;-77
2023/07/21 00:03:43;;;;;;;2.40;1.70;;;;;;;11.79;100.00;99702.69;7392199;19;20038;-77
2023/07/21 00:06:09;;;;;;;1.05;0.70;;;;;;;11.78;100.00;99698.34;7392271;19;20007;-78
2023/07/21 00:08:36;;;;;;;7.43;2.80;;;;;;;11.79;100.00;99702.69;7391713;19;20407;-78
2023/07/21 00:11:03;;;;;;;2.80;2.00;;;;;;;11.69;100.00;99701.28;7392086;19;20025;-78
2023/07/21 00:13:29;;;;;;;3.55;2.30;;;;;;;11.52;100.00;99699.50;7390353;19;20048;-77
2023/07/21 00:15:56;;;;;;;4.07;2.63;;;;;;;11.44;100.00;99702.69;7391539;19;20026;-78
2023/07/21 00:18:23;;;;;;;5.72;2.08;;;;;;;11.19;100.00;99699.75;7396308;19;20027;-78
2023/07/21 00:20:50;;;;;;;5.88;1.92;;;;;;;11.28;100.00;99694.06;7392403;19;20011;-78
2023/07/21 00:23:19;;;;;;;3.22;2.13;;;;;;;11.48;100.00;99688.53;7393699;19;20041;-78
2023/07/21 00:25:46;;;;;;;5.88;1.58;;;;;;;11.57;100.00;99691.19;7392198;19;20014;-77
2023/07/21 00:28:13;;;;;;;6.80;1.77;;;;;;;11.23;100.00;99697.53;7388994;19;20026;-78
2023/07/21 00:30:39;;;;;;;1.83;1.15;;;;;;;11.27;100.00;99692.53;7391348;19;20464;-78
2023/07/21 00:33:05;;;;;;;3.35;1.80;;;;;;;11.22;100.00;99696.00;7391031;19;20035;-78
2023/07/21 00:35:32;;;;;;;1.83;1.73;;;;;;;11.22;100.00;99684.84;7392001;19;20523;-78
2023/07/21 00:38:00;;;;;;;7.40;1.70;;;;;;;11.40;100.00;99690.19;7389278;19;20018;-78
2023/07/21 00:40:27;;;;;;;2.53;1.33;;;;;;;11.26;100.00;99691.00;7391768;19;20022;-77
2023/07/21 00:42:54;;;;;;;5.10;1.75;;;;;;;11.18;100.00;99689.84;7388925;19;20078;-78
2023/07/21 00:45:20;;;;;;;4.78;2.50;;;;;;;10.98;100.00;99692.59;7386986;19;20015;-78
2023/07/21 00:47:47;;;;;;;3.40;1.38;;;;;;;11.05;100.00;99689.38;7387844;19;20481;-78
2023/07/21 00:50:16;;;;;;;8.98;2.13;;;;;;;11.30;100.00;99697.16;7392414;19;20361;-78
2023/07/21 00:52:43;;;;;;;1.80;1.08;;;;;;;11.17;100.00;99699.47;7388520;19;20022;-78
2023/07/21 00:55:09;;;;;;;5.75;1.38;;;;;;;10.99;100.00;99694.13;7390251;19;20025;-78
2023/07/21 00:57:36;;;;;;;10.70;1.42;;;;;;;11.00;100.00;99690.09;7388262;19;20464;-78
2023/07/21 01:00:11;;;;;;;6.53;1.73;;;;;;;11.01;100.00;99686.81;7396960;19;20338;-78
2023/07/21 01:02:38;;;;;;;5.05;2.13;;;;;;;11.01;100.00;99692.38;7393224;19;20042;-78
2023/07/21 01:05:07;;;;;;;9.32;2.30;;;;;;;10.99;100.00;99683.75;7395553;19;20362;-78
2023/07/21 01:07:36;;;;;;;3.40;2.05;;;;;;;10.84;100.00;99687.78;7395435;19;20484;-77
2023/07/21 01:10:03;;;;;;;3.50;1.77;;;;;;;10.71;100.00;99678.97;7401514;19;20015;-78
2023/07/21 01:12:30;;;;;;;3.50;1.80;;;;;;;11.01;100.00;99680.47;7397869;19;20044;-78
2023/07/21 01:14:56;;;;;;;6.95;1.80;;;;;;;12.39;100.00;99667.59;7397300;19;20022;-78
2023/07/21 01:17:26;;;;;;;0.98;0.98;;;;;;;11.61;100.00;99666.66;7395597;19;20048;-78
2023/07/21 01:19:53;;;;;;;1.35;1.15;;;;;;;11.29;100.00;99676.09;7399488;19;20011;-78
2023/07/21 01:22:24;;;;;;;2.97;1.58;;;;;;;11.30;100.00;99670.00;7397763;19;20010;-77
2023/07/21 01:24:51;;;;;;;3.35;2.03;;;;;;;10.98;100.00;99665.47;7400572;19;20010;-77
2023/07/21 01:27:22;;;;;;;4.15;1.58;;;;;;;11.01;100.00;99663.75;7393597;19;20007;-78
2023/07/21 01:29:50;;;;;;;4.93;2.05;;;;;;;10.91;100.00;99656.75;7398952;19;20094;-78
2023/07/21 01:32:21;;;;;;;6.13;3.08;;;;;;;10.90;100.00;99664.34;7394843;19;20021;-78
2023/07/21 01:34:48;;;;;;;;;;;;;;;10.81;100.00;99660.88;7396409;19;20011;-78
2023/07/21 01:37:15;;;;;;;2.00;1.30;;;;;;;10.80;100.00;99659.38;7396085;19;19923;-78
2023/07/21 01:39:43;;;;;;;0.70;0.70;;;;;;;10.83;100.00;99664.72;7397250;19;20449;-78
2023/07/21 01:42:11;;;;;;;2.08;1.08;;;;;;;11.05;100.00;99664.31;7395588;19;20018;-77
2023/07/21 01:44:38;;;;;;;3.50;1.45;;;;;;;11.05;100.00;99658.75;7394591;19;20021;-77
2023/07/21 01:47:05;;;;;;;3.22;1.27;;;;;;;11.31;100.00;99660.41;7395002;19;20483;-77
2023/07/21 01:49:32;;;;;;;2.33;1.70;;;;;;;11.32;100.00;99656.38;7398506;19;20023;-77
2023/07/21 01:51:58;;;;;;;2.75;1.25;;;;;;;11.17;100.00;99655.66;7395638;19;20018;-77
2023/07/21 01:54:42;;;;;;;4.13;1.52;;;;;;;11.17;100.00;99649.31;7396152;19;20015;-77
2023/07/21 01:57:13;;;;;;;1.88;0.95;;;;;;;10.96;100.00;99648.47;7393846;19;20014;-77
2023/07/21 01:59:44;;;;;;;4.03;1.15;;;;;;;10.90;100.00;99652.44;7394940;19;20045;-78
2023/07/21 02:02:11;;;;;;;;;;;;;;;10.68;100.00;99648.03;7394665;19;20028;-77
2023/07/21 02:04:38;;;;;;;2.63;0.70;;;;;;;10.85;100.00;99645.50;7394633;19;19915;-77
2023/07/21 02:07:05;;;;;;;1.75;1.25;;;;;;;10.74;100.00;99641.81;7392905;19;20042;-77
2023/07/21 02:09:31;;;;;;;1.05;0.60;;;;;;;10.92;100.00;99639.56;7397938;19;20034;-78
2023/07/21 02:11:58;;;;;;;0.63;0.63;;;;;;;10.80;100.00;99642.66;7393243;19;20014;-78
2023/07/21 02:14:39;;;;;;;10.13;1.92;;;;;;;10.95;100.00;99637.81;7393687;19;20098;-78
2023/07/21 02:17:07;;;;;;;2.88;1.30;;;;;;;11.00;100.00;99629.53;7392411;19;20356;-78
2023/07/21 02:19:35;;;;;;;1.10;0.93;;;;;;;10.93;100.00;99626.41;7396683;19;20015;-78
2023/07/21 02:22:01;;;;;;;3.60;1.35;;;;;;;11.58;100.00;99625.03;7393659;19;20472;-78
2023/07/21 02:24:27;;;;;;;1.55;1.42;;;;;;;11.73;100.00;99617.38;7398020;19;20039;-77
2023/07/21 02:26:54;;;;;;;2.50;1.15;;;;;;;11.59;100.00;99624.53;7392921;19;20007;-77
2023/07/21 02:29:20;;;;;;;1.58;1.00;;;;;;;11.71;100.00;99622.69;7395735;19;20019;-77
2023/07/21 02:31:49;;;;;;;6.55;2.15;;;;;;;11.86;100.00;99624.16;7392927;19;20039;-77
2023/07/21 02:34:15;;;;;;;5.50;1.70;;;;;;;11.89;100.00;99614.03;7394869;19;20016;-77
2023/07/21 02:36:42;;;;;;;6.07;1.38;;;;;;;12.16;100.00;99621.94;7394620;19;20015;-77
2023/07/21 02:39:08;;;;;;;7.05;1.88;;;;;;;12.47;100.00;99624.00;7395601;19;20113;-78
2023/07/21 02:41:34;;;;;;;1.55;1.45;;;;;;;12.27;100.00;99618.47;7393391;19;20340;-78
2023/07/21 02:44:01;;;;;;;1.20;1.00;;;;;;;12.22;100.00;99613.59;7394419;19;20047;-78
2023/07/21 02:46:27;;;;;;;6.88;1.98;;;;;;;12.19;100.00;99613.31;7391345;19;20443;-78
2023/07/21 02:48:53;;;;;;;2.80;1.73;;;;;;;12.38;100.00;99621.38;7393632;19;20021;-77
2023/07/21 02:51:19;;;;;;;5.45;1.58;;;;;;;12.21;100.00;99612.06;7393399;19;20010;-77
2023/07/21 02:53:47;;;;;;;5.00;1.50;;;;;;;12.15;100.00;99615.56;7391708;19;20011;-78
2023/07/21 02:56:15;;;;;;;1.40;0.88;;;;;;;12.50;100.00;99614.63;7393346;19;20014;-78
2023/07/21 02:59:00;;;;;;;4.40;1.27;;;;;;;12.79;100.00;99617.16;7394051;19;20022;-78
2023/07/21 03:01:26;;;;;;;0.80;0.80;;;;;;;12.48;100.00;99611.56;7392036;19;20042;-77
2023/07/21 03:03:54;;;;;;;1.45;1.35;;;;;;;12.51;100.00;99614.16;7391948;19;20019;-77
2023/07/21 03:06:21;;;;;;;2.15;1.40;;;;;;;12.79;100.00;99614.38;7392185;19;20019;-77
2023/07/21 03:08:48;;;;;;;3.83;1.95;;;;;;;12.93;100.00;99605.84;7393293;19;20024;-77
2023/07/21 03:11:17;;;;;;;1.10;0.57;;;;;;;12.84;100.00;99613.66;7391968;19;20074;-77
2023/07/21 03:14:02;;;;;;;1.75;1.15;;;;;;;12.97;100.00;99611.22;7392641;19;20468;-77
2023/07/21 03:16:31;;;;;;;3.22;1.40;;;;;;;12.78;100.00;99607.25;7392107;19;20048;-77
2023/07/21 03:18:57;;;;;;;1.92;1.30;;;;;;;12.86;100.00;99609.06;7392434;19;20011;-78
2023/07/21 03:21:23;;;;;;;2.67;1.27;;;;;;;13.51;100.00;99604.41;7391954;19;20030;-77
2023/07/21 03:23:50;;;;;;;4.10;1.02;;;;;;;12.93;100.00;99608.63;7394377;19;20022;-78
2023/07/21 03:26:22;;;;;;;7.80;1.60;;;;;;;12.97;100.00;99613.22;7391746;19;20023;-78
2023/07/21 03:28:48;;;;;;;4.47;1.48;;;;;;;12.61;100.00;99611.94;7392425;19;20480;-78
2023/07/21 03:31:15;;;;;;;3.00;1.73;;;;;;;12.83;100.00;99606.53;7391611;19;20086;-78
2023/07/21 03:33:47;;;;;;;7.55;2.63;;;;;;;12.74;100.00;99606.69;7391432;19;20040;-77
2023/07/21 03:36:21;;;;;;;4.63;1.83;;;;;;;12.96;100.00;99604.06;7390972;19;20018;-78
2023/07/21 03:38:47;;;;;;;6.25;1.88;;;;;;;12.83;100.00;99600.94;7391057;19;20015;-80
2023/07/21 03:41:13;;;;;;;7.50;2.00;;;;;;;13.00;100.00;99598.25;7391168;19;20010;-80
2023/07/21 03:43:41;;;;;;;4.18;1.30;;;;;;;13.09;100.00;99598.84;7390517;19;20515;-81
2023/07/21 03:46:08;;;;;;;5.22;1.45;;;;;;;13.09;100.00;99609.28;7390312;19;20030;-81
2023/07/21 03:48:48;;;;;;;6.65;1.23;;;;;;;13.19;100.00;99602.97;7392090;19;20048;-81
2023/07/21 03:51:14;;;;;;;3.13;1.90;;;;;;;13.11;100.00;99599.13;7390858;19;20019;-79
2023/07/21 03:53:44;;;;;;;10.55;2.70;;;;;;;13.13;100.00;99593.78;7391694;19;20025;-79
2023/07/21 03:56:11;;;;;;;3.15;1.60;;;;;;;13.08;100.00;99591.72;7390433;19;20078;-79
2023/07/21 03:58:37;;;;;;;5.70;2.13;;;;;;;13.14;100.00;99592.53;7390629;19;20078;-78
2023/07/21 04:01:04;;;;;;;3.90;1.80;;;;;;;13.21;100.00;99592.06;7391802;19;20023;-79
2023/07/21 04:03:31;;;;;;;3.08;1.23;;;;;;;13.09;100.00;99596.06;7390149;19;20010;-79
2023/07/21 04:06:02;;;;;;;3.95;1.50;;;;;;;13.45;100.00;99589.63;7391753;19;20027;-78
2023/07/21 04:08:29;;;;;;;4.65;1.13;;;;;;;13.34;100.00;99589.59;7392213;19;20471;-78
2023/07/21 04:10:55;;;;;;;6.32;2.25;;;;;;;13.12;100.00;99597.88;7390453;19;20007;-78
2023/07/21 04:13:21;;;;;;;3.50;1.75;;;;;;;14.18;100.00;99604.66;7391625;19;20015;-78
2023/07/21 04:15:51;;;;;;;3.22;1.33;;;;;;;13.40;100.00;99606.41;7390192;19;20021;-78
2023/07/21 04:18:17;;;;;;;8.48;2.50;;;;;;;13.42;100.00;99607.44;7388168;19;20329;-78
2023/07/21 04:20:43;;;;;;;2.92;1.58;;;;;;;13.96;100.00;99607.41;7391162;19;20057;-78
2023/07/21 04:23:09;;;;;;;2.60;1.70;;;;;;;13.58;100.00;99603.94;7389785;19;20024;-78
2023/07/21 04:25:35;;;;;;;3.33;2.15;;;;;;;13.37;100.00;99601.81;7388141;19;20070;-78
2023/07/21 04:28:05;;;;;;;5.97;1.15;;;;;;;13.26;100.00;99598.94;7387782;19;20015;-79
2023/07/21 04:30:33;;;;;;;;;;;;;;;13.45;100.00;99600.84;7391051;19;20035;-79
2023/07/21 04:32:59;;;;;;;3.60;1.40;;;;;;;14.00;100.00;99594.69;7390283;19;19922;-79
2023/07/21 04:35:26;;;;;;;8.52;2.80;;;;;;;13.87;100.00;99590.81;7396517;19;20532;-79
2023/07/21 04:37:52;;;;;;;6.20;2.03;;;;;;;14.22;100.00;99586.34;7393784;19;20018;-78
2023/07/21 04:40:20;;;;;;;3.88;1.10;;;;;;;14.18;100.00;99590.66;7393516;19;20018;-78
2023/07/21 04:42:48;;;;;;;2.33;0.93;;;;;;;14.25;100.00;99587.34;7394048;19;20124;-78
2023/07/21 04:45:16;;;;;;;5.00;2.00;;;;;;;14.08;100.00;99594.94;7394031;19;20019;-78
2023/07/21 04:47:57;;;;;;;3.33;1.48;;;;;;;14.04;100.00;99586.03;7394011;19;20464;-78
2023/07/21 04:50:24;;;;;;;5.97;1.27;;;;;;;14.25;100.00;99581.75;7396916;19;20026;-78
2023/07/21 04:52:51;;;;;;;7.38;2.03;;;;;;;14.36;100.00;99581.78;7395955;19;20476;-78
2023/07/21 04:55:18;;;;;;;3.05;1.52;;;;;;;14.15;100.00;99577.66;7401041;19;20472;-78
2023/07/21 04:57:44;;;;;;;1.77;0.73;;;;;;;14.09;100.00;99586.06;7394297;19;20053;-78
2023/07/21 05:00:12;;;;;;;1.73;1.50;;;;;;;14.47;100.00;99581.78;7395585;19;20022;-78
2023/07/21 05:02:39;;;;;;;1.35;0.68;;;;;;;13.85;100.00;99587.75;7393907;19;20015;-78
2023/07/21 05:05:05;;;;;;;7.65;1.13;;;;;;;13.93;100.00;99583.19;7402201;19;20338;-78
2023/07/21 05:07:35;;;;;;;5.43;1.55;;;;;;;14.24;100.00;99595.00;7393882;19;20010;-78
2023/07/21 05:10:03;;;;;;;3.88;1.15;;;;;;;14.50;100.00;99603.19;7396191;19;20074;-79
2023/07/21 05:12:30;;;;;;;1.92;1.25;;;;;;;14.56;100.00;99589.16;7395984;19;20029;-78
2023/07/21 05:15:07;;;;;;;2.28;1.52;;;;;;;14.51;100.00;99595.56;7394705;19;20019;-78
2023/07/21 05:17:43;;;;;;;7.10;2.00;;;;;;;14.23;100.00;99595.47;7394219;19;20010;-78
2023/07/21 05:20:32;;;;;;;5.10;1.65;;;;;;;14.40;100.00;99593.50;7393609;19;20018;-79
2023/07/21 05:23:12;;;;;;;4.28;1.33;;;;;;;14.26;100.00;99594.47;7394492;19;20048;-79
2023/07/21 05:25:44;;;;;;;1.05;0.80;;;;;;;14.16;100.00;99593.19;7393736;19;20082;-79
2023/07/21 05:28:12;;;;;;;2.53;1.02;;;;;;;14.15;100.00;99592.44;7396128;19;20010;-79
2023/07/21 05:30:42;;;;;;;2.80;1.45;;;;;;;14.27;100.00;99590.41;7395441;19;20010;-78
2023/07/21 05:33:08;;;;;;;4.10;1.13;;;;;;;14.32;100.00;99598.06;7395074;19;20031;-78
2023/07/21 05:35:35;;;;;;;1.73;1.33;;;;;;;14.51;100.00;99604.72;7395247;19;20018;-79
2023/07/21 05:38:13;;;;;;;4.40;1.30;;;;;;;14.58;100.00;99598.59;7391707;19;20329;-79
2023/07/21 05:40:42;;;;;;;4.47;0.90;;;;;;;14.36;100.00;99592.97;7392554;19;20014;-78
2023/07/21 05:43:08;;;;;;;2.85;1.50;;;;;;;14.39;100.00;99591.97;7393289;19;20052;-79
2023/07/21 05:45:39;;;;;;;1.08;0.55;;;;;;;14.39;100.00;99592.75;7392392;19;20479;-79
2023/07/21 05:48:09;;;;;;;6.38;1.45;;;;;;;14.56;100.00;99594.78;7392268;19;20453;-79
2023/07/21 05:50:37;;;;;;;3.30;1.13;;;;;;;14.50;100.00;99591.97;7394927;19;20006;-78
2023/07/21 05:53:05;;;;;;;7.72;2.90;;;;;;;14.79;100.00;99580.25;7394996;19;20014;-78
2023/07/21 05:55:31;;;;;;;6.30;2.28;;;;;;;14.63;100.00;99581.03;7395230;19;20006;-78
2023/07/21 05:57:58;;;;;;;7.22;2.30;;;;;;;15.54;100.00;99583.94;7391748;19;20660;-78
2023/07/21 06:00:26;;;;;;;3.60;1.88;;;;;;;15.17;100.00;99587.84;7396879;19;20010;-78
2023/07/21 06:02:58;;;;;;;6.70;2.47;;;;;;;15.25;100.00;99587.31;7392143;19;20010;-79
2023/07/21 06:05:25;;;;;;;4.03;1.42;;;;;;;15.19;100.00;99584.53;7392140;19;20388;-78
2023/07/21 06:08:30;;;;;;;4.68;2.38;;;;;;;15.39;100.00;99591.88;7392599;19;20070;-78
2023/07/21 06:11:16;;;;;;;4.63;1.85;;;;;;;15.48;100.00;99586.78;7392960;19;20014;-78
2023/07/21 06:13:46;;;;;;;4.63;1.98;;;;;;;15.42;100.00;99585.25;7392373;19;20102;-78
2023/07/21 06:16:22;;;;;;;1.40;1.33;;;;;;;15.37;100.00;99588.81;7391757;19;20010;-78
2023/07/21 06:18:52;;;;;;;4.43;1.35;;;;;;;15.37;100.00;99583.19;7393388;19;20082;-78
2023/07/21 06:21:21;;;;;;;3.50;1.50;;;;;;;15.44;100.00;99593.94;7393874;19;20107;-78
2023/07/21 06:23:48;;;;;;;4.22;1.52;;;;;;;15.56;100.00;99584.94;7395952;19;20018;-78
2023/07/21 06:26:15;;;;;;;6.75;2.40;;;;;;;15.71;100.00;99585.41;7393305;19;20540;-78
2023/07/21 06:28:41;;;;;;;12.93;2.05;;;;;;;15.80;100.00;99587.91;7393052;19;20041;-78
2023/07/21 06:31:10;;;;;;;16.45;1.98;;;;;;;15.91;100.00;99587.09;7394585;19;20015;-78
2023/07/21 06:33:50;;;;;;;5.60;1.83;;;;;;;15.87;100.00;99578.91;7392745;19;20014;-78
2023/07/21 06:36:51;;;;;;;4.60;0.85;;;;;;;15.73;100.00;99580.03;7390603;19;20357;-78
2023/07/21 06:39:22;;;;;;;2.00;1.55;;;;;;;15.75;100.00;99576.69;7391431;19;20112;-78
2023/07/21 06:42:14;;;;;;;2.17;0.85;;;;;;;15.97;100.00;99587.03;7392105;19;20018;-78
2023/07/21 06:45:03;;;;;;;8.60;2.10;;;;;;;16.07;100.00;99583.41;7394035;19;20018;-78
2023/07/21 06:47:46;;;;;;;6.85;1.35;;;;;;;16.24;100.00;99575.63;7391268;19;20026;-78
2023/07/21 06:50:17;;;;;;;2.17;1.10;;;;;;;16.22;100.00;99578.19;7394532;19;20018;-78
2023/07/21 06:52:49;;;;;;;4.55;1.67;;;;;;;16.38;100.00;99585.00;7393724;19;20011;-78
2023/07/21 06:55:15;;;;;;;5.88;1.83;;;;;;;17.65;100.00;99586.63;7397401;19;20010;-78
2023/07/21 06:57:42;;;;;;;3.38;1.05;;;;;;;16.70;100.00;99588.13;7391702;19;20372;-78
2023/07/21 07:00:12;;;;;;;2.60;1.15;;;;;;;16.05;100.00;99585.97;7390697;19;20098;-78
2023/07/21 07:02:39;;;;;;;8.05;2.60;;;;;;;16.17;100.00;99581.81;7392505;19;20018;-78
2023/07/21 07:05:06;;;;;;;3.53;1.08;;;;;;;16.25;100.00;99582.78;7394572;19;20032;-78
2023/07/21 07:07:32;;;;;;;3.08;1.70;;;;;;;17.75;100.00;99578.56;7390469;19;20330;-78
2023/07/21 07:09:58;;;;;;;5.32;1.92;;;;;;;16.76;100.00;99580.38;7392660;19;20052;-78
2023/07/21 07:12:24;;;;;;;1.58;1.42;;;;;;;16.48;100.00;99577.78;7394853;19;20014;-78
2023/07/21 07:14:51;;;;;;;7.97;1.73;;;;;;;16.64;100.00;99586.09;7391559;19;20014;-78
2023/07/21 07:17:18;;;;;;;6.03;1.63;;;;;;;16.60;100.00;99585.63;7395330;19;20031;-78
2023/07/21 07:19:44;;;;;;;4.00;1.42;;;;;;;17.26;100.00;99578.59;7391585;19;20015;-77
2023/07/21 07:22:15;;;;;;;7.70;2.65;;;;;;;17.18;100.00;99571.25;7391543;19;20520;-77
2023/07/21 07:24:41;;;;;;;4.93;1.58;;;;;;;16.74;100.00;99582.97;7396484;19;20006;-77
2023/07/21 07:27:07;;;;;;;1.98;1.02;;;;;;;16.57;100.00;99575.41;7391869;19;20082;-78
2023/07/21 07:29:34;;;;;;;4.57;1.70;;;;;;;16.74;100.00;99574.53;7397154;19;20472;-77
2023/07/21 07:32:01;;;;;;;3.42;1.63;;;;;;;18.32;100.00;99575.19;7392139;19;20026;-77
2023/07/21 07:34:27;;;;;;;3.95;1.48;;;;;;;18.00;100.00;99566.69;7393120;19;20034;-77
2023/07/21 07:36:54;;;;;;;4.80;1.98;;;;;;;17.95;100.00;99570.34;7390971;19;20020;-77
2023/07/21 07:39:20;;;;;;;3.80;1.55;;;;;;;18.01;100.00;99568.22;7391722;19;20018;-77
2023/07/21 07:41:49;;;;;;;1.90;1.00;;;;;;;19.26;100.00;99570.78;7393210;19;20082;-77
2023/07/21 07:44:15;;;;;;;3.63;1.45;;;;;;;18.11;100.00;99566.53;7391187;19;20361;-77
2023/07/21 07:46:41;;;;;;;4.80;1.13;;;;;;;18.52;100.00;99569.00;7390205;19;20018;-78
2023/07/21 07:49:07;;;;;;;5.13;1.20;;;;;;;18.18;100.00;99571.56;7393884;19;20015;-77
2023/07/21 07:51:36;;;;;;;3.28;1.33;;;;;;;18.03;100.00;99571.25;7390927;19;20393;-78
2023/07/21 07:54:03;;;;;;;5.28;1.52;;;;;;;17.85;100.00;99572.03;7392100;19;20038;-77
2023/07/21 07:56:29;;;;;;;2.28;1.27;;;;;;;17.46;100.00;99566.09;7390728;19;20340;-77
2023/07/21 07:58:55;;;;;;;6.32;1.85;;;;;;;17.63;100.00;99572.31;7391147;19;20010;-77
2023/07/21 08:01:21;;;;;;;4.32;1.02;;;;;;;17.73;100.00;99569.88;7392029;19;20078;-77
2023/07/21 08:03:47;;;;;;;1.20;1.10;;;;;;;17.89;100.00;99572.47;7390843;19;20034;-78
2023/07/21 08:06:13;;;;;;;1.00;0.75;;;;;;;18.35;100.00;99567.72;7390005;19;20033;-78
2023/07/21 08:08:40;;;;;;;1.98;1.08;;;;;;;18.30;100.00;99565.75;7391388;19;20019;-78
2023/07/21 08:11:06;;;;;;;8.90;1.98;;;;;;;18.26;100.00;99571.69;7399740;19;20030;-77
2023/07/21 08:13:33;;;;;;;2.25;0.82;;;;;;;18.66;100.00;99575.47;7397991;19;20018;-78
2023/07/21 08:15:59;;;;;;;4.05;1.35;;;;;;;18.86;100.00;99578.41;7397671;19;20448;-78
2023/07/21 08:18:26;;;;;;;3.22;1.38;;;;;;;19.04;100.00;99576.81;7398930;19;20367;-78
2023/07/21 08:20:52;;;;;;;2.03;0.63;;;;;;;19.15;100.00;99581.50;7398032;19;20101;-78
2023/07/21 08:23:18;;;;;;;10.35;2.42;;;;;;;19.00;100.00;99576.38;7400827;19;20014;-78
2023/07/21 08:25:44;;;;;;;8.75;2.42;;;;;;;18.90;100.00;99581.72;7399351;19;20018;-78
2023/07/21 08:28:10;;;;;;;3.33;0.75;;;;;;;18.75;100.00;99578.59;7395498;19;20019;-78
2023/07/21 08:30:36;;;;;;;2.67;1.33;;;;;;;18.45;100.00;99588.63;7403320;19;20112;-78
2023/07/21 08:33:03;;;;;;;5.47;1.30;;;;;;;18.34;100.00;99589.53;7399550;19;20011;-78
2023/07/21 08:35:29;;;;;;;2.95;1.30;;;;;;;18.30;100.00;99591.13;7397504;19;20010;-78
2023/07/21 08:37:56;;;;;;;5.15;1.75;;;;;;;19.10;100.00;99590.84;7395844;19;20018;-78
2023/07/21 08:40:24;;;;;;;4.32;0.95;;;;;;;18.94;100.00;99584.19;7399992;19;20022;-78
2023/07/21 08:42:51;;;;;;;5.65;0.98;;;;;;;19.09;100.00;99587.28;7395638;19;20463;-78
2023/07/21 08:45:20;;;;;;;5.32;1.23;;;;;;;19.01;100.00;99583.56;7394015;19;20014;-78
2023/07/21 08:47:47;;;;;;;4.28;1.10;;;;;;;18.86;100.00;99589.72;7395513;19;20060;-78
2023/07/21 08:50:18;;;;;;;2.45;1.20;;;;;;;18.71;100.00;99588.72;7402852;19;20026;-78
2023/07/21 08:52:44;;;;;;;7.57;1.73;;;;;;;18.41;100.00;99585.31;7397179;19;20010;-78
2023/07/21 08:55:11;;;;;;;8.52;1.40;;;;;;;18.42;100.00;99584.78;7397630;19;20015;-78
2023/07/21 08:57:37;;;;;;;7.55;2.10;;;;;;;18.45;100.00;99594.25;7396383;19;20015;-78
2023/07/21 09:00:04;;;;;;;5.10;1.30;;;;;;;18.38;100.00;99595.63;7399047;19;20022;-78
2023/07/21 09:02:44;;;;;;;5.18;1.63;;;;;;;18.31;100.00;99590.59;7398240;19;20051;-78
2023/07/21 09:05:17;;;;;;;2.63;1.40;;;;;;;18.40;100.00;99586.63;7397837;19;20019;-78
2023/07/21 09:07:45;;;;;;;3.45;1.52;;;;;;;18.36;100.00;99597.44;7395190;19;20018;-78
2023/07/21 09:10:12;;;;;;;4.60;1.33;;;;;;;18.14;100.00;99598.53;7401349;19;20341;-78
2023/07/21 09:12:38;;;;;;;3.97;1.40;;;;;;;17.83;100.00;99608.41;7396075;19;20018;-78
2023/07/21 09:15:10;;;;;;;3.58;1.63;;;;;;;17.64;100.00;99601.22;7396143;19;20022;-78
2023/07/21 09:17:45;;;;;;;1.85;1.17;;;;;;;17.51;100.00;99612.41;7395618;19;20026;-78
2023/07/21 09:20:11;;;;;;;1.98;0.90;;;;;;;17.56;100.00;99606.72;7397642;19;20018;-78
2023/07/21 09:22:41;;;;;;;4.15;0.93;;;;;;;17.61;100.00;99605.88;7395799;19;20011;-78
2023/07/21 09:25:08;;;;;;;6.88;1.58;;;;;;;17.83;100.00;99610.47;7396557;19;20349;-78
2023/07/21 09:27:38;;;;;;;2.58;1.30;;;;;;;18.11;100.00;99608.81;7395886;19;20014;-78
2023/07/21 09:30:04;;;;;;;2.67;1.02;;;;;;;18.24;100.00;99610.16;7400637;19;20039;-78
2023/07/21 09:32:39;;;;;;;1.20;0.73;;;;;;;18.35;100.00;99607.19;7396382;19;20020;-78
2023/07/21 09:35:06;;;;;;;3.05;1.02;;;;;;;18.92;100.00;99615.03;7396686;19;20476;-78
2023/07/21 09:37:34;;;;;;;1.52;0.90;;;;;;;19.43;100.00;99613.59;7395475;19;20091;-78
2023/07/21 09:40:05;;;;;;;4.15;0.82;;;;;;;19.47;100.00;99607.63;7396179;19;20109;-78
2023/07/21 09:42:32;;;;;;;1.00;0.40;;;;;;;19.51;100.00;99610.91;7396663;19;20018;-78
2023/07/21 09:44:58;;;;;;;2.97;0.93;;;;;;;19.45;100.00;99622.28;7396486;19;20019;-78
2023/07/21 09:47:25;;;;;;;1.88;0.50;;;;;;;19.25;100.00;99622.88;7392438;19;20036;-78
2023/07/21 09:49:58;;;;;;;4.90;0.57;;;;;;;19.14;100.00;99617.47;7399082;19;20018;-78
2023/07/21 09:52:26;;;;;;;2.40;0.73;;;;;;;19.20;100.00;99611.72;7396527;19;20035;-78
2023/07/21 09:55:06;;;;;;;0.70;0.52;;;;;;;19.17;100.00;99619.19;7395870;19;20019;-78
2023/07/21 09:57:36;;;;;;;1.55;0.82;;;;;;;19.23;100.00;99611.38;7394398;19;20018;-78
2023/07/21 10:00:07;;;;;;;2.25;0.95;;;;;;;19.06;100.00;99605.28;7395877;19;20375;-78
2023/07/21 10:02:40;;;;;;;4.07;0.60;;;;;;;18.84;100.00;99611.31;7396240;19;20504;-78
2023/07/21 10:05:09;;;;;;;2.67;1.42;;;;;;;18.76;100.00;99618.88;7395731;19;20092;-78
2023/07/21 10:07:38;;;;;;;2.83;0.98;;;;;;;18.79;100.00;99623.47;7394468;19;20078;-78
2023/07/21 10:10:06;;;;;;;1.63;1.23;;;;;;;18.73;100.00;99619.97;7398805;19;20109;-77
2023/07/21 10:13:05;;;;;;;1.33;0.65;;;;;;;18.71;100.00;99622.56;7395744;19;20349;-78
2023/07/21 10:15:32;;;;;;;2.28;0.60;;;;;;;18.64;100.00;99623.19;7396783;19;20354;-78
2023/07/21 10:18:01;;;;;;;0.82;0.63;;;;;;;18.52;100.00;99622.59;7394869;19;20019;-78
2023/07/21 10:20:43;;;;;;;2.13;0.68;;;;;;;18.42;100.00;99629.13;7398229;19;20010;-79
2023/07/21 10:23:11;;;;;;;1.95;0.55;;;;;;;18.46;100.00;99624.75;7392952;19;20014;-79
2023/07/21 10:25:58;;;;;;;4.30;1.20;;;;;;;18.81;100.00;99623.69;7392102;19;20099;-78
2023/07/21 10:28:46;;;;;;;3.80;0.63;;;;;;;18.70;100.00;99623.84;7391010;19;20492;-78
2023/07/21 10:31:21;;;;;;;2.05;1.17;;;;;;;18.69;100.00;99625.16;7391897;19;20396;-79
2023/07/21 10:34:11;;;;;;;0.85;0.35;;;;;;;18.76;100.00;99627.34;7392814;19;20356;-78
2023/07/21 10:36:42;;;;;;;0.70;0.63;;;;;;;18.68;100.00;99629.28;7393270;19;20011;-78
2023/07/21 10:39:14;;;;;;;1.25;0.43;;;;;;;18.64;100.00;99634.47;7392284;19;20489;-79
2023/07/21 10:41:40;;;;;;;1.75;0.40;;;;;;;18.46;100.00;99632.44;7394577;19;20019;-78
2023/07/21 10:44:08;;;;;;;1.65;0.60;;;;;;;18.27;100.00;99640.13;7395960;19;20022;-79
2023/07/21 10:46:36;;;;;;;10.95;1.17;;;;;;;18.34;100.00;99629.00;7392566;19;20022;-79
2023/07/21 10:49:03;;;;;;;0.63;0.30;;;;;;;17.97;100.00;99626.94;7392324;19;20491;-78
2023/07/21 10:51:29;;;;;;;0.90;0.30;;;;;;;18.05;100.00;99625.03;7394991;19;20348;-79
2023/07/21 10:53:55;;;;;;;1.33;0.43;;;;;;;18.07;100.00;99628.09;7393824;19;20090;-79
2023/07/21 10:56:22;;;;;;;2.38;0.90;;;;;;;17.86;100.00;99629.91;7397631;19;20022;-79
2023/07/21 10:58:49;;;;;;;1.00;0.63;;;;;;;18.09;100.00;99625.50;7393725;19;20035;-79
2023/07/21 11:01:19;;;;;;;0.68;0.40;;;;;;;18.04;100.00;99634.78;7392517;19;20014;-79
2023/07/21 11:03:48;;;;;;;3.20;0.70;;;;;;;18.34;100.00;99633.88;7392436;19;20096;-79
2023/07/21 11:06:16;;;;;;;2.33;0.50;;;;;;;18.52;100.00;99627.47;7393482;19;20267;-79
2023/07/21 11:08:43;;;;;;;2.15;0.38;;;;;;;18.72;100.00;99621.25;7396535;19;20039;-79
2023/07/21 11:11:10;;;;;;;4.50;1.00;;;;;;;19.04;100.00;99627.63;7394522;19;20014;-78
2023/07/21 11:13:38;;;;;;;1.98;0.45;;;;;;;19.38;100.00;99622.19;7392053;19;20014;-78
2023/07/21 11:16:05;;;;;;;12.57;0.85;;;;;;;19.60;100.00;99616.84;7391563;19;20349;-78
2023/07/21 11:18:31;;;;;;;2.85;0.40;;;;;;;19.77;100.00;99624.25;7392292;19;20007;-79
2023/07/21 11:20:58;;;;;;;0.88;0.20;;;;;;;19.93;100.00;99621.06;7396121;19;20002;-79
2023/07/21 11:23:28;;;;;;;1.08;0.40;;;;;;;19.90;100.00;99624.25;7393105;19;20014;-78
2023/07/21 11:26:12;;;;;;;0.55;0.50;;;;;;;20.10;100.00;99615.06;7393141;19;20018;-78
2023/07/21 11:28:40;;;;;;;1.85;0.73;;;;;;;20.22;100.00;99614.31;7392747;19;20026;-78
2023/07/21 11:31:13;;;;;;;0.35;0.25;;;;;;;20.31;100.00;99610.25;7389094;19;20042;-78
2023/07/21 11:33:50;;;;;;;0.63;0.30;;;;;;;20.86;100.00;99606.09;7392029;19;20015;-78
2023/07/21 11:36:18;;;;;;;3.30;0.70;;;;;;;21.65;100.00;99605.56;7389522;19;20025;-78